Estación de Colegual INIA
Ultimos registro cada 15 minutos 35
| N° | Estación | Fecha / Hora | Temperatura | Humedad | Lluvia | Velocidad | Dirección | Radiación | Presion |
| 35 | Colegual INIA | 05-05-2026 08:30 | 10,5 | 98,6 | 0,6 | 1,5 | 298 | 7 | 989 |
| 34 | Colegual INIA | 05-05-2026 08:15 | 10,5 | 98,9 | 0,4 | 1,3 | 299 | 3 | 989 |
| 33 | Colegual INIA | 05-05-2026 08:00 | 10,5 | 99 | 0,2 | 1,1 | 291 | 1 | 989 |
| 32 | Colegual INIA | 05-05-2026 07:45 | 10,5 | 99 | 0,2 | 1,1 | 293 | 0 | 989 |
| 31 | Colegual INIA | 05-05-2026 07:30 | 10,4 | 99 | 0,4 | 1,3 | 288 | 0 | 989 |
| 30 | Colegual INIA | 05-05-2026 07:15 | 10,4 | 98,9 | 0,3 | 1,4 | 286 | 0 | 989 |
| 29 | Colegual INIA | 05-05-2026 07:00 | 10,4 | 99,2 | 0,4 | 1,1 | 286 | 0 | 990 |
| 28 | Colegual INIA | 05-05-2026 06:45 | 10,3 | 99 | 0,4 | 1,3 | 276 | 0 | 990 |
| 27 | Colegual INIA | 05-05-2026 06:30 | 10,3 | 98,8 | 0,6 | 1,5 | 276 | 0 | 990 |
| 26 | Colegual INIA | 05-05-2026 06:15 | 10,3 | 98,8 | 0,4 | 1,4 | 281 | 0 | 990 |
| 25 | Colegual INIA | 05-05-2026 06:00 | 10,3 | 99 | 0,4 | 1,2 | 283 | 0 | 990 |
| 24 | Colegual INIA | 05-05-2026 05:45 | 10,3 | 98,9 | 0,4 | 0,7 | 284 | 0 | 990 |
| 23 | Colegual INIA | 05-05-2026 05:30 | 10,2 | 99,4 | 0,2 | 1,2 | 282 | 0 | 990 |
| 22 | Colegual INIA | 05-05-2026 05:15 | 10,2 | 99,6 | 0,4 | 1,4 | 277 | 0 | 990 |
| 21 | Colegual INIA | 05-05-2026 05:00 | 10,2 | 98,8 | 0,2 | 0,8 | 272 | 0 | 990 |
| 20 | Colegual INIA | 05-05-2026 04:45 | 10,3 | 98,8 | 0,3 | 0 | 0 | 0 | 990 |
| 19 | Colegual INIA | 05-05-2026 04:30 | 10,3 | 99,4 | 0,1 | 0,1 | 258 | 0 | 990 |
| 18 | Colegual INIA | 05-05-2026 04:15 | 10,3 | 99,2 | 0,3 | 0,1 | 255 | 0 | 990 |
| 17 | Colegual INIA | 05-05-2026 04:00 | 10,4 | 99 | 0,6 | 0,1 | 250 | 0 | 991 |
| 16 | Colegual INIA | 05-05-2026 03:45 | 10,4 | 99,2 | 0,3 | 0 | 261 | 0 | 991 |
| 15 | Colegual INIA | 05-05-2026 03:30 | 10,4 | 99,3 | 0,1 | 0 | 273 | 0 | 991 |
| 14 | Colegual INIA | 05-05-2026 03:15 | 10,4 | 98,9 | 0,4 | 0 | 0 | 0 | 991 |
| 13 | Colegual INIA | 05-05-2026 03:00 | 10,4 | 98,9 | 0,2 | 0 | 0 | 0 | 991 |
| 12 | Colegual INIA | 05-05-2026 02:45 | 10,4 | 98,7 | 0,1 | 0 | 0 | 0 | 991 |
| 11 | Colegual INIA | 05-05-2026 02:30 | 10,5 | 98,6 | 0,3 | 0 | 0 | 0 | 991 |
| 10 | Colegual INIA | 05-05-2026 02:15 | 10,4 | 98,4 | 0,2 | 0 | 0 | 0 | 991 |
| 9 | Colegual INIA | 05-05-2026 02:00 | 10,4 | 98,5 | 0,2 | 0 | 0 | 0 | 991 |
| 8 | Colegual INIA | 05-05-2026 01:45 | 10,4 | 98,7 | 0,2 | 0,1 | 231 | 0 | 991 |
| 7 | Colegual INIA | 05-05-2026 01:30 | 10,4 | 98,3 | 0,1 | 0,3 | 230 | 0 | 991 |
| 6 | Colegual INIA | 05-05-2026 01:15 | 10,4 | 97,9 | 0,2 | 0,6 | 232 | 0 | 991 |
| 5 | Colegual INIA | 05-05-2026 01:00 | 10,4 | 97,9 | 0,2 | 0 | 0 | 0 | 991 |
| 4 | Colegual INIA | 05-05-2026 00:45 | 10,4 | 98 | 0,1 | 0 | 222 | 0 | 991 |
| 3 | Colegual INIA | 05-05-2026 00:30 | 10,4 | 97,9 | 0 | 0 | 243 | 0 | 991 |
| 2 | Colegual INIA | 05-05-2026 00:15 | 10,3 | 98 | 0,1 | 0 | 0 | 0 | 991 |
| 1 | Colegual INIA | 05-05-2026 00:00 | 10,2 | 98 | 0 | 0,8 | 246 | 0 | 991 |